createdAt,value
2022-08-03T00:01:49.260Z,49.46
2022-08-03T00:04:16.133Z,49.55
2022-08-03T00:06:42.749Z,49.58
2022-08-03T00:09:09.349Z,49.67
2022-08-03T00:11:36.637Z,49.92
2022-08-03T00:14:05.179Z,49.50
2022-08-03T00:16:31.816Z,49.44
2022-08-03T00:18:58.402Z,49.72
2022-08-03T00:21:27.470Z,49.39
2022-08-03T00:23:53.999Z,49.56
2022-08-03T00:26:21.945Z,49.78
2022-08-03T00:28:49.539Z,49.35
2022-08-03T00:31:16.109Z,49.59
2022-08-03T00:33:58.920Z,49.58
2022-08-03T00:36:27.307Z,49.64
2022-08-03T00:38:53.821Z,49.54
2022-08-03T00:41:20.463Z,49.60
2022-08-03T00:43:47.755Z,49.49
2022-08-03T00:46:20.553Z,49.72
2022-08-03T00:48:47.255Z,49.69
2022-08-03T00:51:13.886Z,49.50
2022-08-03T00:53:40.801Z,49.68
2022-08-03T00:56:07.473Z,49.88
2022-08-03T00:58:34.050Z,49.69
2022-08-03T01:01:00.714Z,50.10
2022-08-03T01:03:27.359Z,49.91
2022-08-03T01:06:11.812Z,50.13
2022-08-03T01:08:59.412Z,50.12
2022-08-03T01:12:00.188Z,50.53
2022-08-03T01:14:32.541Z,50.67
2022-08-03T01:17:03.781Z,50.76
2022-08-03T01:19:36.259Z,50.57
2022-08-03T01:22:18.050Z,50.49
2022-08-03T01:24:56.746Z,50.83
2022-08-03T01:27:29.493Z,50.42
2022-08-03T01:30:01.698Z,50.45
2022-08-03T01:32:58.630Z,50.62
2022-08-03T01:35:54.372Z,50.94
2022-08-03T01:38:28.852Z,50.53
2022-08-03T01:40:57.120Z,50.67
2022-08-03T01:44:27.263Z,50.88
2022-08-03T01:46:17.258Z,50.94
2022-08-03T01:48:46.202Z,50.80
2022-08-03T01:51:15.589Z,51.14
2022-08-03T01:53:44.992Z,50.50
2022-08-03T01:56:13.355Z,50.84
2022-08-03T01:58:41.471Z,50.68
2022-08-03T02:01:10.321Z,50.56
2022-08-03T02:04:00.903Z,50.79
2022-08-03T02:07:00.791Z,50.69
2022-08-03T02:09:19.581Z,50.39
2022-08-03T02:11:47.141Z,50.70
2022-08-03T02:14:15.356Z,50.45
2022-08-03T02:16:43.818Z,50.67
2022-08-03T02:19:11.820Z,50.80
2022-08-03T02:21:56.392Z,50.63
2022-08-03T02:24:25.855Z,50.79
2022-08-03T02:26:56.053Z,50.91
2022-08-03T02:29:38.750Z,51.62
2022-08-03T02:32:12.547Z,51.66
2022-08-03T02:34:42.336Z,51.71
2022-08-03T02:37:11.663Z,51.49
2022-08-03T02:39:42.301Z,51.26
2022-08-03T02:42:13.731Z,51.40
2022-08-03T02:44:47.565Z,51.39
2022-08-03T02:47:15.683Z,51.08
2022-08-03T02:49:51.645Z,51.28
2022-08-03T02:52:21.829Z,51.42
2022-08-03T02:54:51.181Z,51.42
2022-08-03T02:57:19.942Z,51.70
2022-08-03T02:59:47.290Z,51.20
2022-08-03T03:02:15.881Z,51.41
2022-08-03T03:05:50.953Z,51.15
2022-08-03T03:07:31.485Z,51.08
2022-08-03T03:10:14.361Z,51.33
2022-08-03T03:12:42.550Z,51.94
2022-08-03T03:15:10.351Z,51.85
2022-08-03T03:17:37.607Z,51.40
2022-08-03T03:20:05.884Z,51.49
2022-08-03T03:22:34.286Z,51.25
2022-08-03T03:25:01.963Z,51.53
2022-08-03T03:27:28.542Z,51.23
2022-08-03T03:29:57.822Z,51.33
2022-08-03T03:32:26.303Z,51.42
2022-08-03T03:34:54.184Z,51.13
2022-08-03T03:37:20.733Z,51.62
2022-08-03T03:39:47.332Z,52.18
2022-08-03T03:42:14.283Z,51.43
2022-08-03T03:44:41.026Z,51.85
2022-08-03T03:47:07.586Z,51.77
2022-08-03T03:49:34.492Z,51.50
2022-08-03T03:52:01.094Z,51.77
2022-08-03T03:54:43.044Z,51.90
2022-08-03T03:57:12.898Z,51.57
2022-08-03T03:59:41.624Z,51.37
2022-08-03T04:02:09.651Z,51.56
2022-08-03T04:04:55.783Z,51.41
2022-08-03T04:07:42.382Z,52.25
2022-08-03T04:10:43.751Z,52.38
2022-08-03T04:13:14.780Z,51.81
2022-08-03T04:15:42.131Z,51.77
2022-08-03T04:18:13.849Z,52.23
2022-08-03T04:20:47.705Z,52.22
2022-08-03T04:23:16.543Z,51.56
2022-08-03T04:25:44.014Z,52.07
2022-08-03T04:28:31.310Z,51.81
2022-08-03T04:30:59.761Z,52.10
2022-08-03T04:33:29.377Z,51.89
2022-08-03T04:36:02.934Z,52.00
2022-08-03T04:38:32.907Z,52.04
2022-08-03T04:41:01.077Z,51.79
2022-08-03T04:43:28.969Z,51.94
2022-08-03T04:45:57.241Z,52.11
2022-08-03T04:48:24.545Z,51.87
2022-08-03T04:50:51.809Z,51.87
2022-08-03T04:53:18.456Z,52.04
2022-08-03T04:55:46.467Z,51.96
2022-08-03T04:58:13.050Z,52.05
2022-08-03T05:00:39.570Z,51.83
2022-08-03T05:03:20.363Z,51.98
2022-08-03T05:06:01.792Z,52.49
2022-08-03T05:08:29.081Z,52.22
2022-08-03T05:10:59.345Z,52.41
2022-08-03T05:13:26.187Z,52.29
2022-08-03T05:15:52.712Z,52.45
2022-08-03T05:18:19.311Z,52.27
2022-08-03T05:20:45.853Z,52.23
2022-08-03T05:23:12.492Z,52.34
2022-08-03T05:25:39.429Z,52.14
2022-08-03T05:28:06.045Z,52.08
2022-08-03T05:30:33.968Z,52.15
2022-08-03T05:33:04.104Z,52.06
2022-08-03T05:35:57.366Z,52.35
2022-08-03T05:38:23.761Z,52.28
2022-08-03T05:40:57.672Z,52.21
2022-08-03T05:43:41.712Z,51.89
2022-08-03T05:46:12.144Z,51.94
2022-08-03T05:48:39.987Z,51.88
2022-08-03T05:51:07.774Z,51.88
2022-08-03T05:53:34.816Z,51.91
2022-08-03T05:56:13.101Z,52.29
2022-08-03T05:58:47.757Z,52.42
2022-08-03T06:01:16.002Z,52.20
2022-08-03T06:03:42.794Z,52.25
2022-08-03T06:06:09.585Z,52.29
2022-08-03T06:08:36.154Z,52.08
2022-08-03T06:11:03.655Z,51.61
2022-08-03T06:13:30.323Z,51.78
2022-08-03T06:15:56.820Z,52.09
2022-08-03T06:18:24.651Z,52.05
2022-08-03T06:20:52.293Z,51.89
2022-08-03T06:23:19.307Z,52.18
2022-08-03T06:25:46.146Z,51.99
2022-08-03T06:28:35.244Z,52.12
2022-08-03T06:31:01.027Z,51.85
2022-08-03T06:34:31.385Z,52.03
2022-08-03T06:36:14.382Z,52.07
2022-08-03T06:38:40.983Z,52.25
2022-08-03T06:41:07.478Z,52.00
2022-08-03T06:43:37.618Z,51.97
2022-08-03T06:46:05.499Z,51.86
2022-08-03T06:48:32.407Z,52.18
2022-08-03T06:50:59.354Z,52.10
2022-08-03T06:53:26.363Z,52.19
2022-08-03T06:55:54.954Z,52.05
2022-08-03T06:58:22.057Z,51.94
2022-08-03T07:00:48.614Z,51.78
2022-08-03T07:03:15.206Z,51.72
2022-08-03T07:05:43.502Z,52.00
2022-08-03T07:08:10.190Z,52.18
2022-08-03T07:10:37.187Z,51.54
2022-08-03T07:13:04.359Z,51.83
2022-08-03T07:15:54.384Z,51.69
2022-08-03T07:18:17.708Z,52.05
2022-08-03T07:20:54.912Z,52.05
2022-08-03T07:23:21.422Z,52.00
2022-08-03T07:25:48.005Z,51.85
2022-08-03T07:28:14.521Z,51.90
2022-08-03T07:30:41.046Z,51.75
2022-08-03T07:33:07.578Z,51.78
2022-08-03T07:35:34.113Z,51.69
2022-08-03T07:38:00.769Z,51.60
2022-08-03T07:40:28.196Z,51.48
2022-08-03T07:42:58.379Z,51.65
2022-08-03T07:45:26.487Z,51.62
2022-08-03T07:47:53.817Z,51.68
2022-08-03T07:50:21.655Z,51.49
2022-08-03T07:52:48.384Z,51.42
2022-08-03T07:55:16.052Z,51.43
2022-08-03T07:57:42.729Z,51.47
2022-08-03T08:00:17.832Z,51.93
2022-08-03T08:02:45.112Z,51.80
2022-08-03T08:05:12.653Z,51.51
2022-08-03T08:07:40.315Z,51.63
2022-08-03T08:10:10.023Z,51.41
2022-08-03T08:12:38.686Z,51.82
2022-08-03T08:15:06.199Z,51.63
2022-08-03T08:17:44.975Z,51.71
2022-08-03T08:20:18.212Z,51.73
2022-08-03T08:23:01.275Z,51.45
2022-08-03T08:25:29.205Z,51.78
2022-08-03T08:28:22.392Z,51.11
2022-08-03T08:30:42.487Z,51.27
2022-08-03T08:33:15.726Z,51.30
2022-08-03T08:35:50.389Z,51.02
2022-08-03T08:38:16.899Z,51.20
2022-08-03T08:40:43.514Z,51.14
2022-08-03T08:43:10.069Z,51.19
2022-08-03T08:45:37.598Z,51.26
2022-08-03T08:48:08.232Z,51.15
2022-08-03T08:50:37.556Z,51.24
2022-08-03T08:53:09.889Z,50.97
2022-08-03T08:55:58.606Z,51.03
2022-08-03T08:58:29.833Z,51.18
2022-08-03T09:00:56.709Z,50.83
2022-08-03T09:03:29.155Z,50.87
2022-08-03T09:05:59.994Z,50.63
2022-08-03T09:08:26.591Z,50.53
2022-08-03T09:10:53.082Z,50.64
2022-08-03T09:13:19.666Z,50.71
2022-08-03T09:16:00.632Z,50.37
2022-08-03T09:18:32.566Z,50.66
2022-08-03T09:21:34.419Z,50.38
2022-08-03T09:24:04.786Z,50.36
2022-08-03T09:26:37.135Z,50.08
2022-08-03T09:29:13.516Z,50.38
2022-08-03T09:31:45.833Z,50.21
2022-08-03T09:34:17.015Z,50.17
2022-08-03T09:36:48.804Z,50.22
2022-08-03T09:39:40.442Z,50.32
2022-08-03T09:42:14.755Z,49.90
2022-08-03T09:44:52.244Z,50.11
2022-08-03T09:47:29.701Z,49.97
2022-08-03T09:50:04.600Z,49.71
2022-08-03T09:52:49.218Z,49.64
2022-08-03T09:56:32.916Z,49.56
2022-08-03T09:58:09.186Z,49.53
2022-08-03T10:00:54.019Z,49.75
2022-08-03T10:03:20.894Z,49.82
2022-08-03T10:05:47.403Z,49.50
2022-08-03T10:08:19.409Z,49.46
2022-08-03T10:10:49.266Z,49.79
2022-08-03T10:13:19.439Z,49.49
2022-08-03T10:16:22.880Z,49.44
2022-08-03T10:18:33.502Z,49.64
2022-08-03T10:21:10.623Z,49.32
2022-08-03T10:23:38.625Z,49.54
2022-08-03T10:26:08.094Z,49.62
2022-08-03T10:28:41.593Z,49.57
2022-08-03T10:31:13.895Z,49.27
2022-08-03T10:33:52.044Z,49.43
2022-08-03T10:36:23.825Z,49.19
2022-08-03T10:38:53.696Z,49.29
2022-08-03T10:41:22.069Z,49.22
2022-08-03T10:44:09.597Z,49.03
2022-08-03T10:46:44.160Z,49.58
2022-08-03T10:49:14.739Z,49.27
2022-08-03T10:51:42.765Z,49.41
2022-08-03T10:55:03.316Z,49.25
2022-08-03T10:57:49.905Z,49.51
2022-08-03T11:00:27.944Z,49.26
2022-08-03T11:03:08.644Z,49.34
2022-08-03T11:05:43.831Z,48.97
2022-08-03T11:08:21.546Z,49.05
2022-08-03T11:10:49.306Z,49.37
2022-08-03T11:13:18.243Z,49.15
2022-08-03T11:15:47.730Z,49.40
2022-08-03T11:18:15.246Z,49.21
2022-08-03T11:20:54.351Z,48.98
2022-08-03T11:24:04.020Z,48.98
2022-08-03T11:26:28.312Z,49.31
2022-08-03T11:29:30.844Z,49.02
2022-08-03T11:31:57.669Z,48.96
2022-08-03T11:34:24.665Z,48.98
2022-08-03T11:37:21.580Z,48.87
2022-08-03T11:39:50.308Z,49.04
2022-08-03T11:42:23.343Z,48.97
2022-08-03T11:44:54.033Z,49.07
2022-08-03T11:47:22.030Z,48.88
2022-08-03T11:49:50.251Z,48.82
2022-08-03T11:52:17.804Z,48.79
2022-08-03T11:54:45.106Z,48.49
2022-08-03T11:57:11.915Z,48.56
2022-08-03T11:59:38.927Z,48.62
2022-08-03T12:02:13.442Z,48.26
2022-08-03T12:05:07.779Z,48.36
2022-08-03T12:08:03.827Z,48.17
2022-08-03T12:10:21.193Z,48.10
2022-08-03T12:12:58.835Z,47.94
2022-08-03T12:15:27.519Z,48.22
2022-08-03T12:17:57.698Z,48.12
2022-08-03T12:20:34.980Z,47.53
2022-08-03T12:23:06.668Z,47.59
2022-08-03T12:25:39.062Z,47.97
2022-08-03T12:28:36.480Z,47.06
2022-08-03T12:30:54.987Z,47.58
2022-08-03T12:33:27.637Z,47.31
2022-08-03T12:36:09.561Z,46.98
2022-08-03T12:38:39.634Z,47.19
2022-08-03T12:41:13.620Z,47.21
2022-08-03T12:43:49.936Z,46.90
2022-08-03T12:46:18.530Z,46.80
2022-08-03T12:49:11.354Z,46.66
2022-08-03T12:51:57.753Z,46.08
2022-08-03T12:54:34.482Z,46.58
2022-08-03T12:57:03.992Z,46.59
2022-08-03T12:59:35.226Z,46.39
2022-08-03T13:02:15.051Z,46.30
2022-08-03T13:04:42.129Z,46.64
2022-08-03T13:07:14.125Z,46.38
2022-08-03T13:09:45.389Z,46.38
2022-08-03T13:12:23.216Z,45.96
2022-08-03T13:14:56.477Z,46.31
2022-08-03T13:17:23.250Z,46.50
2022-08-03T13:19:50.198Z,46.79
2022-08-03T13:22:22.248Z,46.27
2022-08-03T13:24:51.627Z,45.92
2022-08-03T13:27:58.875Z,45.93
2022-08-03T13:30:06.363Z,46.08
2022-08-03T13:32:33.643Z,46.47
2022-08-03T13:35:00.560Z,46.02
2022-08-03T13:37:27.557Z,45.95
2022-08-03T13:39:59.081Z,46.09
2022-08-03T13:42:32.260Z,45.76
2022-08-03T13:45:00.363Z,46.22
2022-08-03T13:47:27.425Z,46.20
2022-08-03T13:50:01.066Z,46.34
2022-08-03T13:52:33.154Z,45.82
2022-08-03T13:55:00.394Z,46.13
2022-08-03T13:58:03.795Z,45.55
2022-08-03T14:00:26.329Z,46.16
2022-08-03T14:03:01.888Z,45.87
2022-08-03T14:05:32.287Z,46.12
2022-08-03T14:08:04.964Z,45.82
2022-08-03T14:10:33.396Z,45.85
2022-08-03T14:13:00.532Z,45.98
2022-08-03T14:15:28.516Z,45.87
2022-08-03T14:17:55.758Z,46.31
2022-08-03T14:20:37.236Z,46.18
2022-08-03T14:23:06.995Z,45.55
2022-08-03T14:25:43.424Z,45.82
2022-08-03T14:28:17.794Z,45.83
2022-08-03T14:30:44.333Z,45.33
2022-08-03T14:33:10.907Z,45.56
2022-08-03T14:35:37.566Z,45.69
2022-08-03T14:38:04.049Z,45.33
2022-08-03T14:40:30.550Z,45.38
2022-08-03T14:42:57.322Z,45.19
2022-08-03T14:45:23.862Z,45.17
2022-08-03T14:50:34.121Z,44.47
2022-08-03T14:50:43.288Z,44.80
2022-08-03T14:53:13.595Z,44.22
2022-08-03T14:55:49.561Z,44.94
2022-08-03T14:58:22.179Z,44.63
2022-08-03T15:00:50.091Z,44.45
2022-08-03T15:03:17.609Z,44.66
2022-08-03T15:05:44.639Z,44.43
2022-08-03T15:08:11.258Z,44.34
2022-08-03T15:10:44.426Z,44.19
2022-08-03T15:13:13.095Z,44.13
2022-08-03T15:15:40.668Z,43.93
2022-08-03T15:18:07.594Z,44.30
2022-08-03T15:20:49.628Z,43.80
2022-08-03T15:23:17.844Z,43.80
2022-08-03T15:26:03.664Z,43.78
2022-08-03T15:28:32.782Z,44.05
2022-08-03T15:31:00.757Z,43.38
2022-08-03T15:33:28.110Z,43.78
2022-08-03T15:35:54.758Z,44.18
2022-08-03T15:38:26.162Z,44.04
2022-08-03T15:40:54.543Z,43.39
2022-08-03T15:43:22.109Z,43.74
2022-08-03T15:45:51.892Z,43.70
2022-08-03T15:48:26.532Z,43.33
2022-08-03T15:50:54.534Z,43.09
2022-08-03T15:53:21.144Z,43.58
2022-08-03T15:55:47.779Z,43.44
2022-08-03T15:59:09.396Z,43.47
2022-08-03T16:01:02.246Z,43.62
2022-08-03T16:03:34.289Z,43.65
2022-08-03T16:06:06.076Z,43.16
2022-08-03T16:08:33.198Z,43.83
2022-08-03T16:11:00.901Z,43.40
2022-08-03T16:14:12.356Z,43.02
2022-08-03T16:16:14.392Z,43.42
2022-08-03T16:18:41.945Z,43.50
2022-08-03T16:21:08.467Z,43.49
2022-08-03T16:23:40.326Z,43.65
2022-08-03T16:26:10.070Z,43.61
2022-08-03T16:28:38.152Z,43.52
2022-08-03T16:31:06.170Z,43.55
2022-08-03T16:33:33.444Z,43.67
2022-08-03T16:36:00.026Z,43.63
2022-08-03T16:38:27.317Z,43.88
2022-08-03T16:40:53.840Z,43.71
2022-08-03T16:43:22.395Z,43.58
2022-08-03T16:45:49.328Z,43.48
2022-08-03T16:48:17.673Z,43.71
2022-08-03T16:50:44.657Z,43.71
2022-08-03T16:53:16.257Z,42.94
2022-08-03T16:55:51.989Z,42.82
2022-08-03T16:58:41.450Z,42.75
2022-08-03T17:01:22.553Z,42.38
2022-08-03T17:04:02.789Z,42.87
2022-08-03T17:06:34.991Z,43.17
2022-08-03T17:09:09.149Z,43.40
2022-08-03T17:11:38.835Z,42.37
2022-08-03T17:14:13.722Z,42.99
2022-08-03T17:16:51.949Z,42.79
2022-08-03T17:19:23.326Z,42.77
2022-08-03T17:22:10.621Z,42.07
2022-08-03T17:24:42.088Z,42.81
2022-08-03T17:28:41.834Z,42.67
2022-08-03T17:30:05.435Z,42.52
2022-08-03T17:32:42.416Z,42.90
2022-08-03T17:35:10.435Z,42.03
2022-08-03T17:37:57.846Z,42.36
2022-08-03T17:40:23.863Z,42.31
2022-08-03T17:42:51.240Z,42.14
2022-08-03T17:45:17.948Z,42.77
2022-08-03T17:47:45.457Z,42.69
2022-08-03T17:50:28.746Z,42.61
2022-08-03T17:53:23.845Z,42.12
2022-08-03T17:56:04.872Z,42.13
2022-08-03T17:59:01.526Z,41.77
2022-08-03T18:02:22.251Z,41.98
2022-08-03T18:05:16.421Z,42.57
2022-08-03T18:07:59.519Z,42.71
2022-08-03T18:10:35.957Z,42.51
2022-08-03T18:13:24.112Z,42.33
2022-08-03T18:16:02.918Z,43.08
2022-08-03T18:18:36.262Z,42.79
2022-08-03T18:21:09.285Z,42.87
2022-08-03T18:23:44.327Z,42.71
2022-08-03T18:26:12.168Z,42.69
2022-08-03T18:28:39.709Z,42.76
2022-08-03T18:31:09.828Z,42.40
2022-08-03T18:34:18.021Z,42.84
2022-08-03T18:39:13.405Z,42.90
2022-08-03T18:41:46.357Z,42.94
2022-08-03T18:44:53.105Z,42.99
2022-08-03T18:47:23.146Z,42.01
2022-08-03T18:50:23.616Z,42.14
2022-08-03T18:52:59.014Z,42.17
2022-08-03T18:55:38.461Z,42.06
2022-08-03T18:58:28.799Z,41.87
2022-08-03T19:01:58.604Z,42.58
2022-08-03T19:04:28.739Z,41.87
2022-08-03T19:07:02.725Z,41.97
2022-08-03T19:09:47.971Z,42.58
2022-08-03T19:12:33.917Z,41.89
2022-08-03T19:15:10.394Z,42.30
2022-08-03T19:17:52.634Z,42.37
2022-08-03T19:20:25.835Z,42.50
2022-08-03T19:22:53.835Z,42.71
2022-08-03T19:28:08.965Z,42.60
2022-08-03T19:30:40.127Z,42.93
2022-08-03T19:33:12.250Z,42.72
2022-08-03T19:35:49.808Z,42.78
2022-08-03T19:38:28.465Z,43.42
2022-08-03T19:41:02.719Z,43.22
2022-08-03T19:43:52.850Z,43.05
2022-08-03T19:46:22.311Z,43.49
2022-08-03T19:49:01.102Z,43.23
2022-08-03T19:52:02.307Z,42.93
2022-08-03T19:54:29.402Z,43.61
2022-08-03T19:56:58.343Z,43.85
2022-08-03T19:59:26.384Z,43.73
2022-08-03T20:01:53.098Z,43.83
2022-08-03T20:04:21.430Z,43.95
2022-08-03T20:06:49.772Z,43.86
2022-08-03T20:09:18.568Z,43.91
2022-08-03T20:11:47.721Z,43.91
2022-08-03T20:14:20.839Z,44.19
2022-08-03T20:16:53.566Z,44.05
2022-08-03T20:19:20.359Z,44.21
2022-08-03T20:21:48.630Z,44.19
2022-08-03T20:24:44.770Z,43.80
2022-08-03T20:27:20.456Z,44.29
2022-08-03T20:30:06.936Z,44.39
2022-08-03T20:32:35.363Z,44.56
2022-08-03T20:35:01.863Z,44.80
2022-08-03T20:37:30.450Z,44.73
2022-08-03T20:39:57.129Z,44.94
2022-08-03T20:42:24.003Z,44.69
2022-08-03T20:45:06.878Z,44.72
2022-08-03T20:47:50.968Z,44.92
2022-08-03T20:50:18.306Z,44.88
2022-08-03T20:52:49.737Z,45.02
2022-08-03T20:55:18.825Z,45.08
2022-08-03T20:57:49.188Z,44.72
2022-08-03T21:00:19.519Z,45.05
2022-08-03T21:02:48.922Z,45.07
2022-08-03T21:05:15.563Z,45.15
2022-08-03T21:08:06.226Z,44.93
2022-08-03T21:10:37.955Z,45.36
2022-08-03T21:12:58.650Z,42.70
2022-08-03T21:13:02.099Z,43.10
2022-08-03T21:13:31.000Z,45.62
2022-08-03T21:16:12.563Z,45.39
2022-08-03T21:18:49.335Z,45.51
2022-08-03T21:21:18.869Z,45.53
2022-08-03T21:23:52.569Z,45.60
2022-08-03T21:26:21.679Z,45.67
2022-08-03T21:28:49.919Z,45.55
2022-08-03T21:31:24.526Z,45.47
2022-08-03T21:33:54.116Z,45.62
2022-08-03T21:36:20.709Z,46.10
2022-08-03T21:38:47.623Z,46.20
2022-08-03T21:41:23.318Z,46.11
2022-08-03T21:43:49.848Z,45.91
2022-08-03T21:46:19.404Z,46.13
2022-08-03T21:48:48.324Z,46.10
2022-08-03T21:51:18.404Z,46.05
2022-08-03T21:53:59.588Z,46.31
2022-08-03T21:56:51.383Z,46.53
2022-08-03T21:59:20.297Z,46.32
2022-08-03T22:01:49.218Z,46.55
2022-08-03T22:04:50.283Z,46.82
2022-08-03T22:07:08.465Z,46.53
2022-08-03T22:09:36.047Z,46.42
2022-08-03T22:12:03.370Z,46.83
2022-08-03T22:14:32.766Z,46.50
2022-08-03T22:17:00.839Z,47.00
2022-08-03T22:19:32.948Z,46.58
2022-08-03T22:22:01.555Z,46.51
2022-08-03T22:24:31.977Z,46.83
2022-08-03T22:27:19.919Z,46.50
2022-08-03T22:29:47.450Z,46.36
2022-08-03T22:32:14.027Z,46.86
2022-08-03T22:34:42.792Z,46.58
2022-08-03T22:37:11.008Z,46.37
2022-08-03T22:39:39.877Z,46.82
2022-08-03T22:42:06.775Z,46.67
2022-08-03T22:44:35.444Z,46.89
2022-08-03T22:47:03.604Z,46.58
2022-08-03T22:49:31.579Z,47.10
2022-08-03T22:51:59.066Z,46.97
2022-08-03T22:54:25.633Z,46.92
2022-08-03T22:56:52.562Z,46.91
2022-08-03T22:59:39.153Z,47.27
2022-08-03T23:02:20.973Z,46.81
2022-08-03T23:05:02.866Z,47.38
2022-08-03T23:07:39.804Z,47.01
2022-08-03T23:10:12.178Z,46.98
2022-08-03T23:12:40.415Z,47.09
2022-08-03T23:15:09.733Z,46.63
2022-08-03T23:17:58.210Z,46.67
2022-08-03T23:20:26.905Z,46.84
2022-08-03T23:22:55.640Z,46.77
2022-08-03T23:25:22.688Z,47.00
2022-08-03T23:28:05.230Z,46.92
2022-08-03T23:30:34.525Z,47.33
2022-08-03T23:33:02.905Z,46.96
2022-08-03T23:36:22.700Z,47.25
2022-08-03T23:38:36.226Z,47.34
2022-08-03T23:41:04.869Z,47.31
2022-08-03T23:43:47.003Z,47.37
2022-08-03T23:46:22.042Z,47.31
2022-08-03T23:48:48.656Z,47.21
2022-08-03T23:51:37.293Z,47.36
2022-08-03T23:54:16.109Z,47.34
2022-08-03T23:56:42.752Z,47.18
2022-08-03T23:59:21.814Z,47.32
